Terminal Aerodrome Forecast
Issued by NWS Blacksburg, VA

Current Version | Previous Version | Graphics & Text | Print | Product List | Glossary On
Versions: 1 2 3 4 5 6 7 8 9 10 11 12 13 14 15 16 17
000
FTUS41 KRNK 151120
TAFBLF
TAF
KBLF 151120Z 1512/1612 VRB03KT P6SM FEW110
      TEMPO 1512/1513 5SM BR BKN006
     FM151500 15004KT P6SM SCT150
     FM152300 21005KT P6SM BKN200
     FM160900 28009KT P6SM VCSH BKN025=

USA.gov is the U.S. government's official web portal to all federal, state and local government web resources and services.